sensor_id;sensor_type;location;lat;lon;timestamp;temperature;humidity
21163;DHT22;10739;52.198;20.908;2023-06-14T00:01:07;13.00;99.90
21163;DHT22;10739;52.198;20.908;2023-06-14T00:03:35;13.00;99.90
21163;DHT22;10739;52.198;20.908;2023-06-14T00:06:01;13.00;99.90
21163;DHT22;10739;52.198;20.908;2023-06-14T00:08:27;13.00;99.90
21163;DHT22;10739;52.198;20.908;2023-06-14T00:10:54;13.00;99.90
21163;DHT22;10739;52.198;20.908;2023-06-14T00:13:20;13.00;99.90
21163;DHT22;10739;52.198;20.908;2023-06-14T00:15:46;13.00;99.90
21163;DHT22;10739;52.198;20.908;2023-06-14T00:18:13;13.00;99.90
21163;DHT22;10739;52.198;20.908;2023-06-14T00:20:40;12.90;99.90
21163;DHT22;10739;52.198;20.908;2023-06-14T00:23:07;13.00;99.90
21163;DHT22;10739;52.198;20.908;2023-06-14T00:25:34;13.00;99.90
21163;DHT22;10739;52.198;20.908;2023-06-14T00:28:01;12.90;99.90
21163;DHT22;10739;52.198;20.908;2023-06-14T00:30:28;12.90;99.90
21163;DHT22;10739;52.198;20.908;2023-06-14T00:32:56;12.90;99.90
21163;DHT22;10739;52.198;20.908;2023-06-14T00:35:23;12.90;99.90
21163;DHT22;10739;52.198;20.908;2023-06-14T00:37:49;12.90;99.90
21163;DHT22;10739;52.198;20.908;2023-06-14T00:40:16;12.90;99.90
21163;DHT22;10739;52.198;20.908;2023-06-14T00:42:42;12.80;99.90
21163;DHT22;10739;52.198;20.908;2023-06-14T00:45:09;12.90;99.90
21163;DHT22;10739;52.198;20.908;2023-06-14T00:47:37;12.80;99.90
21163;DHT22;10739;52.198;20.908;2023-06-14T00:50:07;12.80;99.90
21163;DHT22;10739;52.198;20.908;2023-06-14T00:52:35;12.90;99.90
21163;DHT22;10739;52.198;20.908;2023-06-14T00:55:02;12.80;99.90
21163;DHT22;10739;52.198;20.908;2023-06-14T00:57:29;12.80;99.90
21163;DHT22;10739;52.198;20.908;2023-06-14T00:59:56;12.90;99.90
21163;DHT22;10739;52.198;20.908;2023-06-14T01:02:22;12.90;99.90
21163;DHT22;10739;52.198;20.908;2023-06-14T01:04:50;12.90;99.90
21163;DHT22;10739;52.198;20.908;2023-06-14T01:07:49;12.90;99.90
21163;DHT22;10739;52.198;20.908;2023-06-14T01:11:09;12.80;99.90
21163;DHT22;10739;52.198;20.908;2023-06-14T01:13:45;12.80;99.90
21163;DHT22;10739;52.198;20.908;2023-06-14T01:16:12;12.80;99.90
21163;DHT22;10739;52.198;20.908;2023-06-14T01:18:40;12.80;99.90
21163;DHT22;10739;52.198;20.908;2023-06-14T01:21:20;12.80;99.90
21163;DHT22;10739;52.198;20.908;2023-06-14T01:23:47;12.70;99.90
21163;DHT22;10739;52.198;20.908;2023-06-14T01:26:22;12.70;99.90
21163;DHT22;10739;52.198;20.908;2023-06-14T01:28:49;12.70;99.90
21163;DHT22;10739;52.198;20.908;2023-06-14T01:31:20;12.70;99.90
21163;DHT22;10739;52.198;20.908;2023-06-14T01:33:49;12.80;99.90
21163;DHT22;10739;52.198;20.908;2023-06-14T01:36:19;12.70;99.90
21163;DHT22;10739;52.198;20.908;2023-06-14T01:38:47;12.70;99.90
21163;DHT22;10739;52.198;20.908;2023-06-14T01:41:17;12.80;99.90
21163;DHT22;10739;52.198;20.908;2023-06-14T01:43:46;12.80;99.90
21163;DHT22;10739;52.198;20.908;2023-06-14T01:46:15;12.80;99.90
21163;DHT22;10739;52.198;20.908;2023-06-14T01:48:42;12.80;99.90
21163;DHT22;10739;52.198;20.908;2023-06-14T01:51:09;12.80;99.90
21163;DHT22;10739;52.198;20.908;2023-06-14T01:53:35;12.80;99.90
21163;DHT22;10739;52.198;20.908;2023-06-14T01:56:01;12.80;99.90
21163;DHT22;10739;52.198;20.908;2023-06-14T01:58:29;12.90;99.90
21163;DHT22;10739;52.198;20.908;2023-06-14T02:00:55;12.90;99.90
21163;DHT22;10739;52.198;20.908;2023-06-14T02:03:22;12.90;99.90
21163;DHT22;10739;52.198;20.908;2023-06-14T02:05:49;12.90;99.90
21163;DHT22;10739;52.198;20.908;2023-06-14T02:08:15;13.00;99.90
21163;DHT22;10739;52.198;20.908;2023-06-14T02:10:41;13.00;99.90
21163;DHT22;10739;52.198;20.908;2023-06-14T02:13:08;13.00;99.90
21163;DHT22;10739;52.198;20.908;2023-06-14T02:15:34;13.00;99.90
21163;DHT22;10739;52.198;20.908;2023-06-14T02:18:04;12.90;99.90
21163;DHT22;10739;52.198;20.908;2023-06-14T02:20:30;12.90;99.90
21163;DHT22;10739;52.198;20.908;2023-06-14T02:22:57;12.90;99.90
21163;DHT22;10739;52.198;20.908;2023-06-14T02:25:23;12.90;99.90
21163;DHT22;10739;52.198;20.908;2023-06-14T02:27:50;12.90;99.90
21163;DHT22;10739;52.198;20.908;2023-06-14T02:30:17;12.90;99.90
21163;DHT22;10739;52.198;20.908;2023-06-14T02:32:43;13.00;99.90
21163;DHT22;10739;52.198;20.908;2023-06-14T02:35:09;13.00;99.90
21163;DHT22;10739;52.198;20.908;2023-06-14T02:37:36;13.00;99.90
21163;DHT22;10739;52.198;20.908;2023-06-14T02:40:02;13.00;99.90
21163;DHT22;10739;52.198;20.908;2023-06-14T02:42:29;13.00;99.90
21163;DHT22;10739;52.198;20.908;2023-06-14T02:44:56;13.00;99.90
21163;DHT22;10739;52.198;20.908;2023-06-14T02:47:22;13.00;99.90
21163;DHT22;10739;52.198;20.908;2023-06-14T02:49:48;13.00;99.90
21163;DHT22;10739;52.198;20.908;2023-06-14T02:52:15;13.00;99.90
21163;DHT22;10739;52.198;20.908;2023-06-14T02:54:41;13.00;99.90
21163;DHT22;10739;52.198;20.908;2023-06-14T02:57:08;13.10;99.90
21163;DHT22;10739;52.198;20.908;2023-06-14T02:59:34;13.00;99.90
21163;DHT22;10739;52.198;20.908;2023-06-14T03:02:01;13.00;99.90
21163;DHT22;10739;52.198;20.908;2023-06-14T03:04:27;13.10;99.90
21163;DHT22;10739;52.198;20.908;2023-06-14T03:06:54;13.10;99.90
21163;DHT22;10739;52.198;20.908;2023-06-14T03:09:22;13.10;99.90
21163;DHT22;10739;52.198;20.908;2023-06-14T03:11:48;13.20;99.90
21163;DHT22;10739;52.198;20.908;2023-06-14T03:14:14;13.20;99.90
21163;DHT22;10739;52.198;20.908;2023-06-14T03:16:43;13.20;99.90
21163;DHT22;10739;52.198;20.908;2023-06-14T03:19:09;13.10;99.90
21163;DHT22;10739;52.198;20.908;2023-06-14T03:21:37;13.20;99.90
21163;DHT22;10739;52.198;20.908;2023-06-14T03:24:04;13.20;99.90
21163;DHT22;10739;52.198;20.908;2023-06-14T03:26:31;13.30;99.90
21163;DHT22;10739;52.198;20.908;2023-06-14T03:28:59;13.30;99.90
21163;DHT22;10739;52.198;20.908;2023-06-14T03:31:25;13.20;99.90
21163;DHT22;10739;52.198;20.908;2023-06-14T03:33:51;13.20;99.90
21163;DHT22;10739;52.198;20.908;2023-06-14T03:36:17;13.30;99.90
21163;DHT22;10739;52.198;20.908;2023-06-14T03:38:44;13.30;99.90
21163;DHT22;10739;52.198;20.908;2023-06-14T03:41:10;13.40;99.90
21163;DHT22;10739;52.198;20.908;2023-06-14T03:43:37;13.40;99.90
21163;DHT22;10739;52.198;20.908;2023-06-14T03:46:03;13.40;99.90
21163;DHT22;10739;52.198;20.908;2023-06-14T03:48:29;13.40;99.90
21163;DHT22;10739;52.198;20.908;2023-06-14T03:50:55;13.50;99.90
21163;DHT22;10739;52.198;20.908;2023-06-14T03:53:22;13.40;99.90
21163;DHT22;10739;52.198;20.908;2023-06-14T03:55:50;13.40;99.90
21163;DHT22;10739;52.198;20.908;2023-06-14T03:58:18;13.50;99.90
21163;DHT22;10739;52.198;20.908;2023-06-14T04:00:45;13.50;99.90
21163;DHT22;10739;52.198;20.908;2023-06-14T04:03:11;13.50;99.90
21163;DHT22;10739;52.198;20.908;2023-06-14T04:05:39;13.50;99.90
21163;DHT22;10739;52.198;20.908;2023-06-14T04:08:10;13.60;99.90
21163;DHT22;10739;52.198;20.908;2023-06-14T04:10:36;13.60;99.90
21163;DHT22;10739;52.198;20.908;2023-06-14T04:13:02;13.60;99.90
21163;DHT22;10739;52.198;20.908;2023-06-14T04:15:30;13.60;99.90
21163;DHT22;10739;52.198;20.908;2023-06-14T04:17:57;13.70;99.90
21163;DHT22;10739;52.198;20.908;2023-06-14T04:20:23;13.70;99.90
21163;DHT22;10739;52.198;20.908;2023-06-14T04:22:51;13.70;99.90
21163;DHT22;10739;52.198;20.908;2023-06-14T04:25:18;13.80;99.90
21163;DHT22;10739;52.198;20.908;2023-06-14T04:27:44;13.80;99.90
21163;DHT22;10739;52.198;20.908;2023-06-14T04:30:12;13.90;99.90
21163;DHT22;10739;52.198;20.908;2023-06-14T04:32:39;13.90;99.90
21163;DHT22;10739;52.198;20.908;2023-06-14T04:35:07;14.00;99.90
21163;DHT22;10739;52.198;20.908;2023-06-14T04:37:33;14.10;99.90
21163;DHT22;10739;52.198;20.908;2023-06-14T04:39:59;14.10;99.90
21163;DHT22;10739;52.198;20.908;2023-06-14T04:42:26;14.10;99.90
21163;DHT22;10739;52.198;20.908;2023-06-14T04:44:56;14.10;99.90
21163;DHT22;10739;52.198;20.908;2023-06-14T04:47:23;14.10;99.90
21163;DHT22;10739;52.198;20.908;2023-06-14T04:49:56;14.20;99.90
21163;DHT22;10739;52.198;20.908;2023-06-14T04:52:23;14.30;99.90
21163;DHT22;10739;52.198;20.908;2023-06-14T04:54:52;14.30;99.90
21163;DHT22;10739;52.198;20.908;2023-06-14T04:57:20;14.50;99.90
21163;DHT22;10739;52.198;20.908;2023-06-14T04:59:48;14.50;99.90
21163;DHT22;10739;52.198;20.908;2023-06-14T05:02:24;14.60;99.90
21163;DHT22;10739;52.198;20.908;2023-06-14T05:04:51;14.50;99.90
21163;DHT22;10739;52.198;20.908;2023-06-14T05:07:18;14.60;99.90
21163;DHT22;10739;52.198;20.908;2023-06-14T05:09:45;14.60;99.90
21163;DHT22;10739;52.198;20.908;2023-06-14T05:12:12;14.50;99.90
21163;DHT22;10739;52.198;20.908;2023-06-14T05:14:38;14.50;99.90
21163;DHT22;10739;52.198;20.908;2023-06-14T05:17:05;14.60;99.90
21163;DHT22;10739;52.198;20.908;2023-06-14T05:19:31;14.60;99.90
21163;DHT22;10739;52.198;20.908;2023-06-14T05:21:57;14.80;99.90
21163;DHT22;10739;52.198;20.908;2023-06-14T05:24:24;14.80;99.90
21163;DHT22;10739;52.198;20.908;2023-06-14T05:26:51;14.80;99.90
21163;DHT22;10739;52.198;20.908;2023-06-14T05:29:17;14.90;99.90
21163;DHT22;10739;52.198;20.908;2023-06-14T05:31:43;14.90;99.90
21163;DHT22;10739;52.198;20.908;2023-06-14T05:34:10;14.90;99.90
21163;DHT22;10739;52.198;20.908;2023-06-14T05:36:36;14.90;99.90
21163;DHT22;10739;52.198;20.908;2023-06-14T05:39:02;14.90;99.90
21163;DHT22;10739;52.198;20.908;2023-06-14T05:41:30;14.90;99.90
21163;DHT22;10739;52.198;20.908;2023-06-14T05:43:56;14.80;99.90
21163;DHT22;10739;52.198;20.908;2023-06-14T05:46:23;14.90;99.90
21163;DHT22;10739;52.198;20.908;2023-06-14T05:48:51;14.90;99.90
21163;DHT22;10739;52.198;20.908;2023-06-14T05:51:18;15.00;99.90
21163;DHT22;10739;52.198;20.908;2023-06-14T05:53:48;15.00;99.90
21163;DHT22;10739;52.198;20.908;2023-06-14T05:56:15;15.00;99.90
21163;DHT22;10739;52.198;20.908;2023-06-14T05:58:44;15.10;99.90
21163;DHT22;10739;52.198;20.908;2023-06-14T06:01:11;15.10;99.90
21163;DHT22;10739;52.198;20.908;2023-06-14T06:03:37;15.20;99.90
21163;DHT22;10739;52.198;20.908;2023-06-14T06:06:03;15.20;99.90
21163;DHT22;10739;52.198;20.908;2023-06-14T06:08:30;15.20;99.90
21163;DHT22;10739;52.198;20.908;2023-06-14T06:10:57;15.30;99.90
21163;DHT22;10739;52.198;20.908;2023-06-14T06:13:23;15.30;99.90
21163;DHT22;10739;52.198;20.908;2023-06-14T06:15:49;15.40;99.90
21163;DHT22;10739;52.198;20.908;2023-06-14T06:18:16;15.40;99.90
21163;DHT22;10739;52.198;20.908;2023-06-14T06:20:42;15.60;99.90
21163;DHT22;10739;52.198;20.908;2023-06-14T06:23:09;15.70;99.90
21163;DHT22;10739;52.198;20.908;2023-06-14T06:25:36;15.90;99.90
21163;DHT22;10739;52.198;20.908;2023-06-14T06:28:02;16.10;99.90
21163;DHT22;10739;52.198;20.908;2023-06-14T06:30:30;16.20;99.90
21163;DHT22;10739;52.198;20.908;2023-06-14T06:32:57;16.30;99.90
21163;DHT22;10739;52.198;20.908;2023-06-14T06:35:24;16.20;99.90
21163;DHT22;10739;52.198;20.908;2023-06-14T06:37:50;16.10;99.90
21163;DHT22;10739;52.198;20.908;2023-06-14T06:40:16;16.30;99.90
21163;DHT22;10739;52.198;20.908;2023-06-14T06:42:43;16.30;99.90
21163;DHT22;10739;52.198;20.908;2023-06-14T06:45:09;16.30;99.90
21163;DHT22;10739;52.198;20.908;2023-06-14T06:47:36;16.50;99.90
21163;DHT22;10739;52.198;20.908;2023-06-14T06:50:02;16.50;99.90
21163;DHT22;10739;52.198;20.908;2023-06-14T06:52:29;16.60;99.90
21163;DHT22;10739;52.198;20.908;2023-06-14T06:54:55;16.80;99.90
21163;DHT22;10739;52.198;20.908;2023-06-14T06:57:22;16.80;99.90
21163;DHT22;10739;52.198;20.908;2023-06-14T06:59:49;16.90;99.90
21163;DHT22;10739;52.198;20.908;2023-06-14T07:02:16;16.90;99.90
21163;DHT22;10739;52.198;20.908;2023-06-14T07:04:42;16.80;99.90
21163;DHT22;10739;52.198;20.908;2023-06-14T07:07:09;16.80;99.90
21163;DHT22;10739;52.198;20.908;2023-06-14T07:09:36;16.70;99.90
21163;DHT22;10739;52.198;20.908;2023-06-14T07:12:02;16.70;99.90
21163;DHT22;10739;52.198;20.908;2023-06-14T07:14:28;16.70;99.90
21163;DHT22;10739;52.198;20.908;2023-06-14T07:16:55;16.60;99.90
21163;DHT22;10739;52.198;20.908;2023-06-14T07:19:22;16.70;99.90
21163;DHT22;10739;52.198;20.908;2023-06-14T07:21:48;16.70;99.90
21163;DHT22;10739;52.198;20.908;2023-06-14T07:24:14;16.80;99.90
21163;DHT22;10739;52.198;20.908;2023-06-14T07:26:41;16.80;99.90
21163;DHT22;10739;52.198;20.908;2023-06-14T07:29:07;16.90;99.90
21163;DHT22;10739;52.198;20.908;2023-06-14T07:31:33;17.00;99.90
21163;DHT22;10739;52.198;20.908;2023-06-14T07:34:00;17.10;99.90
21163;DHT22;10739;52.198;20.908;2023-06-14T07:36:26;17.20;99.90
21163;DHT22;10739;52.198;20.908;2023-06-14T07:38:52;17.20;99.90
21163;DHT22;10739;52.198;20.908;2023-06-14T07:41:18;17.20;99.90
21163;DHT22;10739;52.198;20.908;2023-06-14T07:43:45;17.30;99.90
21163;DHT22;10739;52.198;20.908;2023-06-14T07:46:11;17.50;99.90
21163;DHT22;10739;52.198;20.908;2023-06-14T07:48:37;17.60;99.90
21163;DHT22;10739;52.198;20.908;2023-06-14T07:51:03;17.60;99.90
21163;DHT22;10739;52.198;20.908;2023-06-14T07:53:37;17.50;99.90
21163;DHT22;10739;52.198;20.908;2023-06-14T07:56:05;17.70;99.90
21163;DHT22;10739;52.198;20.908;2023-06-14T07:58:31;17.60;99.90
21163;DHT22;10739;52.198;20.908;2023-06-14T08:00:57;17.70;99.90
21163;DHT22;10739;52.198;20.908;2023-06-14T08:03:23;17.90;99.90
21163;DHT22;10739;52.198;20.908;2023-06-14T08:05:50;17.80;99.90
21163;DHT22;10739;52.198;20.908;2023-06-14T08:08:16;17.80;99.90
21163;DHT22;10739;52.198;20.908;2023-06-14T08:10:43;17.80;99.90
21163;DHT22;10739;52.198;20.908;2023-06-14T08:13:10;17.70;99.90
21163;DHT22;10739;52.198;20.908;2023-06-14T08:15:36;17.70;99.90
21163;DHT22;10739;52.198;20.908;2023-06-14T08:18:02;17.70;99.90
21163;DHT22;10739;52.198;20.908;2023-06-14T08:20:29;17.70;99.90
21163;DHT22;10739;52.198;20.908;2023-06-14T08:22:57;17.80;99.90
21163;DHT22;10739;52.198;20.908;2023-06-14T08:25:23;17.80;99.90
21163;DHT22;10739;52.198;20.908;2023-06-14T08:27:50;18.00;99.90
21163;DHT22;10739;52.198;20.908;2023-06-14T08:30:16;18.00;99.90
21163;DHT22;10739;52.198;20.908;2023-06-14T08:32:43;18.10;99.90
21163;DHT22;10739;52.198;20.908;2023-06-14T08:35:10;18.10;99.90
21163;DHT22;10739;52.198;20.908;2023-06-14T08:37:40;18.10;99.90
21163;DHT22;10739;52.198;20.908;2023-06-14T08:40:22;18.10;99.90
21163;DHT22;10739;52.198;20.908;2023-06-14T08:42:53;18.10;99.90
21163;DHT22;10739;52.198;20.908;2023-06-14T08:45:24;18.20;99.90
21163;DHT22;10739;52.198;20.908;2023-06-14T08:47:53;18.30;99.90
21163;DHT22;10739;52.198;20.908;2023-06-14T08:50:25;18.50;99.90
21163;DHT22;10739;52.198;20.908;2023-06-14T08:52:54;18.60;99.90
21163;DHT22;10739;52.198;20.908;2023-06-14T08:55:23;18.90;99.90
21163;DHT22;10739;52.198;20.908;2023-06-14T08:57:57;19.00;99.90
21163;DHT22;10739;52.198;20.908;2023-06-14T09:00:27;19.20;99.90
21163;DHT22;10739;52.198;20.908;2023-06-14T09:02:55;19.30;99.90
21163;DHT22;10739;52.198;20.908;2023-06-14T09:05:24;19.50;99.90
21163;DHT22;10739;52.198;20.908;2023-06-14T09:07:52;19.70;99.90
21163;DHT22;10739;52.198;20.908;2023-06-14T09:10:22;19.70;99.90
21163;DHT22;10739;52.198;20.908;2023-06-14T09:12:49;19.60;99.90
21163;DHT22;10739;52.198;20.908;2023-06-14T09:15:15;19.60;99.90
21163;DHT22;10739;52.198;20.908;2023-06-14T09:17:43;19.50;99.90
21163;DHT22;10739;52.198;20.908;2023-06-14T09:20:12;19.60;99.90
21163;DHT22;10739;52.198;20.908;2023-06-14T09:22:43;19.60;99.90
21163;DHT22;10739;52.198;20.908;2023-06-14T09:25:09;19.70;99.90
21163;DHT22;10739;52.198;20.908;2023-06-14T09:27:40;19.70;99.90
21163;DHT22;10739;52.198;20.908;2023-06-14T09:30:11;19.80;99.90
21163;DHT22;10739;52.198;20.908;2023-06-14T09:32:39;19.60;99.90
21163;DHT22;10739;52.198;20.908;2023-06-14T09:35:06;19.50;99.90
21163;DHT22;10739;52.198;20.908;2023-06-14T09:37:34;19.50;99.90
21163;DHT22;10739;52.198;20.908;2023-06-14T09:40:05;19.50;99.90
21163;DHT22;10739;52.198;20.908;2023-06-14T09:42:35;19.30;99.90
21163;DHT22;10739;52.198;20.908;2023-06-14T09:45:03;18.90;99.90
21163;DHT22;10739;52.198;20.908;2023-06-14T09:47:32;18.90;99.90
21163;DHT22;10739;52.198;20.908;2023-06-14T09:49:58;18.90;99.90
21163;DHT22;10739;52.198;20.908;2023-06-14T09:52:27;18.80;99.90
21163;DHT22;10739;52.198;20.908;2023-06-14T09:54:59;18.90;99.90
21163;DHT22;10739;52.198;20.908;2023-06-14T09:57:29;19.00;99.90
21163;DHT22;10739;52.198;20.908;2023-06-14T10:00:01;19.00;99.90
21163;DHT22;10739;52.198;20.908;2023-06-14T10:02:36;18.90;99.90
21163;DHT22;10739;52.198;20.908;2023-06-14T10:05:05;18.80;99.90
21163;DHT22;10739;52.198;20.908;2023-06-14T10:07:48;18.80;99.90
21163;DHT22;10739;52.198;20.908;2023-06-14T10:10:18;18.80;99.90
21163;DHT22;10739;52.198;20.908;2023-06-14T10:12:45;18.90;99.90
21163;DHT22;10739;52.198;20.908;2023-06-14T10:23:56;19.30;99.90
21163;DHT22;10739;52.198;20.908;2023-06-14T10:26:29;19.50;99.90
21163;DHT22;10739;52.198;20.908;2023-06-14T10:29:08;19.60;99.90
21163;DHT22;10739;52.198;20.908;2023-06-14T10:31:48;19.90;99.90
21163;DHT22;10739;52.198;20.908;2023-06-14T10:34:24;20.20;99.90
21163;DHT22;10739;52.198;20.908;2023-06-14T10:37:02;20.40;99.90
21163;DHT22;10739;52.198;20.908;2023-06-14T10:39:31;20.90;99.90
21163;DHT22;10739;52.198;20.908;2023-06-14T10:42:08;21.40;99.90
21163;DHT22;10739;52.198;20.908;2023-06-14T10:44:55;21.50;99.90
21163;DHT22;10739;52.198;20.908;2023-06-14T10:47:31;21.60;99.90
21163;DHT22;10739;52.198;20.908;2023-06-14T10:52:28;21.60;99.90
21163;DHT22;10739;52.198;20.908;2023-06-14T10:57:49;21.70;99.90
21163;DHT22;10739;52.198;20.908;2023-06-14T11:00:27;22.00;99.90
21163;DHT22;10739;52.198;20.908;2023-06-14T11:06:23;21.80;99.90
21163;DHT22;10739;52.198;20.908;2023-06-14T11:11:46;23.00;98.70
21163;DHT22;10739;52.198;20.908;2023-06-14T11:14:14;22.90;99.10
21163;DHT22;10739;52.198;20.908;2023-06-14T11:16:41;22.20;98.80
21163;DHT22;10739;52.198;20.908;2023-06-14T11:19:07;22.10;99.90
21163;DHT22;10739;52.198;20.908;2023-06-14T11:21:34;22.70;98.50
21163;DHT22;10739;52.198;20.908;2023-06-14T11:24:12;23.10;97.80
21163;DHT22;10739;52.198;20.908;2023-06-14T11:26:42;23.60;95.70
21163;DHT22;10739;52.198;20.908;2023-06-14T11:29:08;23.40;95.70
21163;DHT22;10739;52.198;20.908;2023-06-14T11:31:35;23.10;96.30
21163;DHT22;10739;52.198;20.908;2023-06-14T11:34:02;22.70;97.30
21163;DHT22;10739;52.198;20.908;2023-06-14T11:36:30;22.00;97.40
21163;DHT22;10739;52.198;20.908;2023-06-14T11:39:06;21.70;98.60
21163;DHT22;10739;52.198;20.908;2023-06-14T11:41:44;21.50;98.40
21163;DHT22;10739;52.198;20.908;2023-06-14T11:44:12;21.30;99.80
21163;DHT22;10739;52.198;20.908;2023-06-14T11:46:39;21.10;98.90
21163;DHT22;10739;52.198;20.908;2023-06-14T11:49:07;21.10;98.00
21163;DHT22;10739;52.198;20.908;2023-06-14T11:51:35;20.90;98.40
21163;DHT22;10739;52.198;20.908;2023-06-14T11:54:03;20.90;98.40
21163;DHT22;10739;52.198;20.908;2023-06-14T11:56:32;20.90;99.10
21163;DHT22;10739;52.198;20.908;2023-06-14T11:58:59;21.30;99.70
21163;DHT22;10739;52.198;20.908;2023-06-14T12:01:25;21.50;98.20
21163;DHT22;10739;52.198;20.908;2023-06-14T12:03:53;21.50;97.30
21163;DHT22;10739;52.198;20.908;2023-06-14T12:06:28;21.30;96.50
21163;DHT22;10739;52.198;20.908;2023-06-14T12:08:59;21.80;96.60
21163;DHT22;10739;52.198;20.908;2023-06-14T12:11:35;22.80;96.60
21163;DHT22;10739;52.198;20.908;2023-06-14T12:14:07;23.40;94.00
21163;DHT22;10739;52.198;20.908;2023-06-14T12:16:37;23.80;94.20
21163;DHT22;10739;52.198;20.908;2023-06-14T12:19:16;24.50;92.10
21163;DHT22;10739;52.198;20.908;2023-06-14T12:21:46;25.00;91.40
21163;DHT22;10739;52.198;20.908;2023-06-14T12:24:14;24.30;92.00
21163;DHT22;10739;52.198;20.908;2023-06-14T12:26:41;23.90;92.70
21163;DHT22;10739;52.198;20.908;2023-06-14T12:29:08;23.30;92.10
21163;DHT22;10739;52.198;20.908;2023-06-14T12:31:36;22.70;91.10
21163;DHT22;10739;52.198;20.908;2023-06-14T12:34:03;22.50;90.80
21163;DHT22;10739;52.198;20.908;2023-06-14T12:36:30;22.50;91.20
21163;DHT22;10739;52.198;20.908;2023-06-14T12:38:57;22.80;92.10
21163;DHT22;10739;52.198;20.908;2023-06-14T12:41:23;23.20;92.30
21163;DHT22;10739;52.198;20.908;2023-06-14T12:43:50;23.10;91.90
21163;DHT22;10739;52.198;20.908;2023-06-14T12:46:17;22.90;91.20
21163;DHT22;10739;52.198;20.908;2023-06-14T12:48:43;23.30;91.50
21163;DHT22;10739;52.198;20.908;2023-06-14T12:51:09;23.90;92.70
21163;DHT22;10739;52.198;20.908;2023-06-14T12:53:35;24.80;90.40
21163;DHT22;10739;52.198;20.908;2023-06-14T12:56:01;25.60;88.70
21163;DHT22;10739;52.198;20.908;2023-06-14T12:58:28;25.60;85.10
21163;DHT22;10739;52.198;20.908;2023-06-14T13:00:54;25.50;85.20
21163;DHT22;10739;52.198;20.908;2023-06-14T13:03:21;25.90;83.90
21163;DHT22;10739;52.198;20.908;2023-06-14T13:05:47;26.40;82.50
21163;DHT22;10739;52.198;20.908;2023-06-14T13:08:13;26.50;83.00
21163;DHT22;10739;52.198;20.908;2023-06-14T13:10:40;26.90;81.80
21163;DHT22;10739;52.198;20.908;2023-06-14T13:13:06;26.10;79.30
21163;DHT22;10739;52.198;20.908;2023-06-14T13:15:33;25.00;83.50
21163;DHT22;10739;52.198;20.908;2023-06-14T13:17:59;24.30;86.10
21163;DHT22;10739;52.198;20.908;2023-06-14T13:20:26;23.60;85.40
21163;DHT22;10739;52.198;20.908;2023-06-14T13:22:52;23.80;84.90
21163;DHT22;10739;52.198;20.908;2023-06-14T13:25:19;23.50;84.80
21163;DHT22;10739;52.198;20.908;2023-06-14T13:27:45;24.20;86.00
21163;DHT22;10739;52.198;20.908;2023-06-14T13:30:12;24.70;81.80
21163;DHT22;10739;52.198;20.908;2023-06-14T13:32:38;25.10;80.00
21163;DHT22;10739;52.198;20.908;2023-06-14T13:35:04;24.80;81.70
21163;DHT22;10739;52.198;20.908;2023-06-14T13:37:31;24.60;81.50
21163;DHT22;10739;52.198;20.908;2023-06-14T13:39:57;24.30;82.40
21163;DHT22;10739;52.198;20.908;2023-06-14T13:42:23;24.80;82.50
21163;DHT22;10739;52.198;20.908;2023-06-14T13:44:50;25.00;83.70
21163;DHT22;10739;52.198;20.908;2023-06-14T13:47:17;24.50;80.80
21163;DHT22;10739;52.198;20.908;2023-06-14T13:49:43;24.10;79.70
21163;DHT22;10739;52.198;20.908;2023-06-14T13:52:10;23.80;81.60
21163;DHT22;10739;52.198;20.908;2023-06-14T13:54:37;24.60;82.90
21163;DHT22;10739;52.198;20.908;2023-06-14T13:57:03;25.50;80.00
21163;DHT22;10739;52.198;20.908;2023-06-14T13:59:30;25.90;78.90
21163;DHT22;10739;52.198;20.908;2023-06-14T14:01:56;25.50;81.60
21163;DHT22;10739;52.198;20.908;2023-06-14T14:04:23;25.10;80.40
21163;DHT22;10739;52.198;20.908;2023-06-14T14:06:49;25.30;81.50
21163;DHT22;10739;52.198;20.908;2023-06-14T14:09:15;25.10;83.50
21163;DHT22;10739;52.198;20.908;2023-06-14T14:11:42;25.70;83.40
21163;DHT22;10739;52.198;20.908;2023-06-14T14:14:08;24.80;80.50
21163;DHT22;10739;52.198;20.908;2023-06-14T14:16:36;24.40;80.40
21163;DHT22;10739;52.198;20.908;2023-06-14T14:19:03;23.00;85.40
21163;DHT22;10739;52.198;20.908;2023-06-14T14:21:30;22.20;89.60
21163;DHT22;10739;52.198;20.908;2023-06-14T14:23:56;21.90;90.50
21163;DHT22;10739;52.198;20.908;2023-06-14T14:26:22;21.70;91.70
21163;DHT22;10739;52.198;20.908;2023-06-14T14:28:49;22.40;90.60
21163;DHT22;10739;52.198;20.908;2023-06-14T14:31:18;23.00;88.20
21163;DHT22;10739;52.198;20.908;2023-06-14T14:33:48;23.50;89.20
21163;DHT22;10739;52.198;20.908;2023-06-14T14:36:14;23.50;86.00
21163;DHT22;10739;52.198;20.908;2023-06-14T14:38:40;23.00;86.40
21163;DHT22;10739;52.198;20.908;2023-06-14T14:41:07;22.40;88.10
21163;DHT22;10739;52.198;20.908;2023-06-14T14:43:33;22.00;90.40
21163;DHT22;10739;52.198;20.908;2023-06-14T14:45:59;21.50;91.10
21163;DHT22;10739;52.198;20.908;2023-06-14T14:48:26;21.10;91.40
21163;DHT22;10739;52.198;20.908;2023-06-14T14:50:52;20.80;92.10
21163;DHT22;10739;52.198;20.908;2023-06-14T14:53:18;20.70;93.10
21163;DHT22;10739;52.198;20.908;2023-06-14T14:55:45;20.60;93.40
21163;DHT22;10739;52.198;20.908;2023-06-14T14:58:13;20.50;93.10
21163;DHT22;10739;52.198;20.908;2023-06-14T15:00:43;20.40;93.80
21163;DHT22;10739;52.198;20.908;2023-06-14T15:03:12;20.30;93.70
21163;DHT22;10739;52.198;20.908;2023-06-14T15:05:39;20.10;95.10
21163;DHT22;10739;52.198;20.908;2023-06-14T15:08:06;19.90;95.80
21163;DHT22;10739;52.198;20.908;2023-06-14T15:10:39;19.90;96.00
21163;DHT22;10739;52.198;20.908;2023-06-14T15:13:10;19.90;96.00
21163;DHT22;10739;52.198;20.908;2023-06-14T15:15:37;19.90;95.70
21163;DHT22;10739;52.198;20.908;2023-06-14T15:18:03;19.90;96.50
21163;DHT22;10739;52.198;20.908;2023-06-14T15:20:29;20.00;96.30
21163;DHT22;10739;52.198;20.908;2023-06-14T15:22:56;20.20;96.70
21163;DHT22;10739;52.198;20.908;2023-06-14T15:25:28;20.30;96.30
21163;DHT22;10739;52.198;20.908;2023-06-14T15:27:55;20.20;96.50
21163;DHT22;10739;52.198;20.908;2023-06-14T15:30:22;20.10;96.50
21163;DHT22;10739;52.198;20.908;2023-06-14T15:32:49;20.00;97.00
21163;DHT22;10739;52.198;20.908;2023-06-14T15:35:17;20.10;98.40
21163;DHT22;10739;52.198;20.908;2023-06-14T15:37:47;20.20;98.20
21163;DHT22;10739;52.198;20.908;2023-06-14T15:40:14;20.20;98.10